Time;durP1;ratioP1;P1;durP2;ratioP2;P2;SDS_P1;SDS_P2;PMS_P1;PMS_P2;Temp;Humidity;BMP_temperature;BMP_pressure;BME280_temperature;BME280_humidity;BME280_pressure;Samples;Min_cycle;Max_cycle;Signal;HPM_P1;HPM_P2
2022/02/10 00:19:42;;;;;;;7.07;4.45;;;8.20;99.90;;;;;;6094581;23;20018;-77
2022/02/10 00:35:58;;;;;;;10.85;6.78;;;8.20;99.90;;;;;;6096909;23;20069;-77
2022/02/10 00:38:29;;;;;;;9.85;6.32;;;8.20;99.90;;;;;;6073090;23;20018;-73
2022/02/10 00:40:58;;;;;;;12.25;7.13;;;8.20;99.90;;;;;;6095018;23;20022;-73
2022/02/10 00:43:24;;;;;;;13.63;7.43;;;8.50;99.90;;;;;;6095157;23;20130;-73
2022/02/10 00:45:50;;;;;;;14.02;7.32;;;8.20;99.90;;;;;;6071378;23;20022;-72
2022/02/10 00:48:20;;;;;;;12.82;7.57;;;8.20;99.90;;;;;;6096944;23;20074;-73
2022/02/10 00:50:49;;;;;;;13.18;7.90;;;8.80;99.90;;;;;;6047700;23;20093;-76
2022/02/10 00:53:25;;;;;;;17.50;8.57;;;8.20;99.90;;;;;;6096774;23;20045;-76
2022/02/10 00:55:54;;;;;;;13.68;8.20;;;8.20;99.90;;;;;;6071341;23;20010;-75
2022/02/10 00:58:30;;;;;;;14.48;8.73;;;8.20;99.90;;;;;;6096140;23;20050;-75
2022/02/10 01:30:21;;;;;;;9.82;5.68;;;8.10;99.90;;;;;;6096327;23;20018;-76
2022/02/10 01:32:51;;;;;;;10.02;5.43;;;8.10;99.90;;;;;;6096680;23;20045;-76
2022/02/10 01:35:22;;;;;;;10.10;5.72;;;8.10;99.90;;;;;;6070591;23;20337;-76
2022/02/10 01:37:54;;;;;;;8.07;4.85;;;8.10;99.90;;;;;;6070891;23;20081;-72
2022/02/10 01:41:16;;;;;;;12.63;5.78;;;8.10;99.90;;;;;;6094867;23;20066;-72
2022/02/10 02:05:26;;;;;;;8.25;4.55;;;7.90;99.90;;;;;;6095348;23;20018;-75
2022/02/10 02:07:54;;;;;;;7.75;4.95;;;7.90;99.90;;;;;;6094843;23;20407;-72
2022/02/10 02:10:22;;;;;;;10.85;5.07;;;7.90;99.90;;;;;;6094495;23;20029;-72
2022/02/10 02:12:48;;;;;;;11.27;4.55;;;7.90;99.90;;;;;;6070636;23;20015;-75
2022/02/10 02:15:17;;;;;;;7.85;4.15;;;7.90;99.90;;;;;;6097325;23;20014;-72
2022/02/10 02:17:43;;;;;;;8.65;4.60;;;8.00;99.90;;;;;;6049671;23;20022;-74
2022/02/10 02:20:09;;;;;;;8.43;4.22;;;8.00;99.90;;;;;;6096628;23;20438;-71
2022/02/10 02:22:35;;;;;;;9.68;4.40;;;8.00;99.90;;;;;;6097013;23;20014;-71
2022/02/10 02:25:01;;;;;;;6.13;4.32;;;8.00;99.90;;;;;;6096398;23;20397;-72
2022/02/10 02:27:27;;;;;;;6.15;4.35;;;8.00;99.90;;;;;;6098212;23;20014;-76
2022/02/10 02:30:09;;;;;;;6.35;4.07;;;8.20;99.90;;;;;;6072762;23;20471;-73
2022/02/10 02:32:39;;;;;;;7.10;4.43;;;7.90;99.90;;;;;;6095940;23;20019;-76
2022/02/10 03:04:04;;;;;;;8.38;4.47;;;7.90;99.90;;;;;;6096839;23;20021;-76
2022/02/10 03:05:23;;;;;;;10.43;4.28;;;7.70;99.90;;;;;;6097588;23;20049;-75
2022/02/10 03:07:55;;;;;;;9.32;4.53;;;7.70;99.90;;;;;;6095708;23;20018;-72
2022/02/10 03:10:56;;;;;;;9.85;4.30;;;7.70;99.90;;;;;;6072888;23;20010;-72
2022/02/10 03:13:28;;;;;;;7.90;4.60;;;7.70;99.90;;;;;;6097183;23;20018;-72
2022/02/10 03:18:57;;;;;;;8.02;4.03;;;7.70;99.90;;;;;;6074020;23;20014;-71
2022/02/10 04:08:11;;;;;;;7.63;5.57;;;7.70;99.90;;;;;;6095621;23;20015;-71
2022/02/10 04:10:51;;;;;;;12.80;6.20;;;7.70;99.90;;;;;;6095446;23;20390;-75
2022/02/10 04:13:33;;;;;;;12.35;5.70;;;7.70;99.90;;;;;;6049757;23;20413;-71
2022/02/10 04:57:58;;;;;;;14.07;8.32;;;7.60;99.90;;;;;;6094484;23;20076;-76
2022/02/10 05:00:39;;;;;;;11.88;8.05;;;7.60;99.90;;;;;;6095703;23;20022;-76
2022/02/10 05:36:11;;;;;;;21.15;11.00;;;7.50;99.90;;;;;;6016424;23;20139;-77
2022/02/10 05:39:27;;;;;;;16.98;11.45;;;7.80;99.90;;;;;;6094782;23;20010;-77
2022/02/10 06:40:03;;;;;;;18.33;12.55;;;7.20;99.90;;;;;;6047722;23;20030;-78
2022/02/10 06:51:55;;;;;;;22.25;12.93;;;7.30;99.90;;;;;;6043373;23;20019;-78
2022/02/10 06:54:40;;;;;;;19.70;12.55;;;7.20;99.90;;;;;;5999208;23;20074;-77
2022/02/10 07:08:27;;;;;;;25.67;14.02;;;7.50;99.90;;;;;;6101040;23;20441;-73
2022/02/10 07:10:50;;;;;;;24.42;14.20;;;7.20;99.90;;;;;;6122246;23;20056;-73
2022/02/10 07:54:14;;;;;;;31.98;15.15;;;7.20;99.90;;;;;;6104444;23;20093;-80
2022/02/10 08:50:04;;;;;;;17.75;6.45;;;8.10;99.90;;;;;;6097486;23;20041;-80
2022/02/10 09:03:55;;;;;;;18.35;5.85;;;7.30;99.90;;;;;;6093770;23;20026;-76
2022/02/10 09:06:46;;;;;;;19.10;5.97;;;7.30;99.90;;;;;;6093188;23;20354;-80
2022/02/10 09:23:48;;;;;;;15.45;4.80;;;7.50;99.90;;;;;;5992803;23;20504;-75
2022/02/10 10:00:58;;;;;;;13.45;3.20;;;7.50;99.90;;;;;;6073160;23;20023;-88
2022/02/10 10:03:30;;;;;;;;;;;7.40;99.90;;;;;;6096288;23;20022;-73
2022/02/10 10:06:16;;;;;;;19.17;3.83;;;7.40;99.90;;;;;;6094745;23;19948;-74
2022/02/10 10:57:21;;;;;;;17.85;2.90;;;7.70;99.90;;;;;;6092222;23;20426;-79
2022/02/10 11:36:20;;;;;;;17.63;3.30;;;7.90;99.90;;;;;;6095952;23;20032;-77
2022/02/10 11:37:09;;;;;;;16.10;3.15;;;7.90;99.90;;;;;;6095606;23;20357;-76
2022/02/10 11:39:49;;;;;;;15.68;2.90;;;7.80;99.90;;;;;;6095884;23;20014;-77
2022/02/10 11:42:32;;;;;;;20.58;3.42;;;7.80;99.90;;;;;;6095719;23;20020;-77
2022/02/10 12:32:04;;;;;;;21.58;3.35;;;8.00;99.90;;;;;;6095065;23;20029;-77
2022/02/10 12:42:56;;;;;;;15.38;2.83;;;8.10;99.90;;;;;;5956829;24;20020;-76
2022/02/10 13:34:35;;;;;;;17.35;2.97;;;7.90;99.90;;;;;;6093683;23;20030;-72
2022/02/10 14:16:00;;;;;;;15.50;2.88;;;7.50;99.90;;;;;;6094764;23;20093;-74
2022/02/10 14:18:29;;;;;;;16.92;2.42;;;7.40;99.90;;;;;;6070282;23;20014;-74
2022/02/10 14:28:27;;;;;;;13.75;2.60;;;7.40;99.90;;;;;;6093683;23;20453;-74
2022/02/10 14:30:54;;;;;;;16.15;3.83;;;7.40;99.90;;;;;;6070127;23;20137;-74
2022/02/10 14:33:30;;;;;;;18.50;3.83;;;7.40;99.90;;;;;;6095337;23;20023;-73
2022/02/10 15:11:27;;;;;;;15.77;2.88;;;7.30;99.90;;;;;;6097466;23;20110;-78
2022/02/10 15:33:16;;;;;;;15.38;2.45;;;7.00;99.90;;;;;;6074363;23;20480;-77
2022/02/10 15:46:40;;;;;;;18.25;3.50;;;7.00;99.90;;;;;;6095891;23;20019;-78
2022/02/10 15:50:00;;;;;;;20.00;3.30;;;7.00;99.90;;;;;;6095728;23;20050;-79
2022/02/10 16:11:11;;;;;;;13.40;2.50;;;7.20;99.90;;;;;;6074508;23;20027;-78
2022/02/10 16:19:05;;;;;;;12.45;2.72;;;6.90;99.90;;;;;;6097383;23;20015;-81
2022/02/10 16:21:46;;;;;;;18.45;3.22;;;6.90;99.90;;;;;;6097021;23;20018;-81
2022/02/10 16:24:17;;;;;;;12.40;2.08;;;6.90;99.90;;;;;;6071276;23;20018;-78
2022/02/10 16:26:58;;;;;;;14.98;2.55;;;6.80;99.90;;;;;;6095340;23;20018;-78
2022/02/10 16:29:33;;;;;;;12.15;2.50;;;7.60;99.90;;;;;;6095358;23;20025;-79
2022/02/10 16:31:59;;;;;;;15.00;3.20;;;6.80;99.90;;;;;;6070676;23;20022;-78
2022/02/10 16:34:28;;;;;;;17.67;2.83;;;7.50;99.90;;;;;;6070913;23;20344;-79
2022/02/10 16:36:55;;;;;;;18.15;3.08;;;6.70;99.90;;;;;;6071059;23;20018;-78
2022/02/10 16:39:24;;;;;;;19.95;3.17;;;7.20;99.90;;;;;;6095229;23;20070;-78
2022/02/10 16:41:53;;;;;;;13.32;2.55;;;6.70;99.90;;;;;;6071126;23;20025;-81
2022/02/10 16:44:21;;;;;;;16.58;2.60;;;6.70;99.90;;;;;;6072435;23;20019;-78
2022/02/10 16:46:54;;;;;;;12.65;2.63;;;6.70;99.90;;;;;;6096824;23;20094;-78
2022/02/10 16:49:24;;;;;;;16.05;3.22;;;6.70;99.90;;;;;;6096890;23;20330;-78
2022/02/10 16:51:54;;;;;;;16.77;2.88;;;6.60;99.90;;;;;;6095511;23;20093;-77
2022/02/10 16:59:46;;;;;;;19.52;2.83;;;6.60;99.90;;;;;;6094732;23;20030;-78
2022/02/10 17:21:27;;;;;;;16.95;2.85;;;6.20;99.90;;;;;;6074760;23;20019;-79
2022/02/10 17:29:41;;;;;;;20.50;3.30;;;6.40;99.90;;;;;;6079364;23;20082;-78
2022/02/10 17:32:17;;;;;;;17.10;2.83;;;6.40;99.90;;;;;;6095161;23;20458;-79
2022/02/10 17:37:28;;;;;;;23.30;3.75;;;6.90;99.90;;;;;;6094911;23;20159;-81
2022/02/10 17:43:40;;;;;;;15.77;3.42;;;6.40;99.90;;;;;;6075377;23;20025;-81
2022/02/10 17:53:57;;;;;;;19.85;3.67;;;6.30;99.90;;;;;;6096425;23;20021;-81
2022/02/10 17:56:27;;;;;;;20.35;3.33;;;6.90;99.90;;;;;;6070823;23;20229;-79
2022/02/10 17:58:53;;;;;;;15.05;2.80;;;6.30;99.90;;;;;;6070783;23;20061;-80
2022/02/10 18:01:21;;;;;;;17.65;3.20;;;6.30;99.90;;;;;;6096691;23;20018;-80
2022/02/10 18:03:49;;;;;;;19.38;3.40;;;6.30;99.90;;;;;;6096360;23;20440;-80
2022/02/10 18:06:22;;;;;;;17.17;3.33;;;6.80;99.90;;;;;;6094702;23;20476;-81
2022/02/10 18:14:09;;;;;;;15.05;3.15;;;6.60;99.90;;;;;;6095528;23;20026;-80
2022/02/10 18:19:09;;;;;;;15.55;3.08;;;6.20;99.90;;;;;;6072405;23;20019;-78
2022/02/10 19:05:45;;;;;;;27.50;4.22;;;5.90;99.90;;;;;;6097777;23;20022;-78
2022/02/10 19:08:24;;;;;;;18.27;3.35;;;7.10;99.90;;;;;;6095828;23;20101;-78
2022/02/10 19:10:59;;;;;;;13.35;3.03;;;5.90;99.90;;;;;;6097077;23;20527;-79
2022/02/10 19:13:25;;;;;;;15.27;2.60;;;5.90;99.90;;;;;;6096767;23;20322;-80
2022/02/10 19:15:59;;;;;;;16.30;3.63;;;5.80;99.90;;;;;;6094072;23;20015;-78
2022/02/10 19:18:27;;;;;;;18.63;3.80;;;5.90;99.90;;;;;;6072328;23;20042;-78
2022/02/10 19:20:58;;;;;;;13.93;3.00;;;5.80;99.90;;;;;;6097940;23;20412;-80
2022/02/10 19:23:27;;;;;;;17.55;3.15;;;5.80;99.90;;;;;;6048368;23;20437;-80
2022/02/10 19:25:58;;;;;;;21.33;5.95;;;5.30;99.90;;;;;;6096957;23;20033;-80
2022/02/10 19:28:26;;;;;;;22.77;3.63;;;6.70;99.90;;;;;;6097520;23;20029;-80
2022/02/10 19:30:52;;;;;;;14.57;3.33;;;6.50;99.90;;;;;;6071638;23;20017;-80
2022/02/10 19:33:30;;;;;;;18.85;3.83;;;5.80;99.90;;;;;;6072399;23;20350;-77
2022/02/10 19:36:19;;;;;;;27.70;3.65;;;5.70;99.90;;;;;;6097785;23;20062;-80
2022/02/10 19:38:45;;;;;;;20.98;3.25;;;5.70;99.90;;;;;;6071045;23;20014;-78
2022/02/10 19:41:28;;;;;;;;;;;;;;;;;;;;;
2022/02/10 19:43:57;;;;;;;27.67;3.88;;;5.60;99.90;;;;;;6094916;23;20057;-78
2022/02/10 19:46:46;;;;;;;18.50;3.15;;;5.60;99.90;;;;;;6096088;23;20019;-79
2022/02/10 19:49:19;;;;;;;15.10;2.90;;;5.60;99.90;;;;;;6097489;23;20014;-78
2022/02/10 19:51:46;;;;;;;19.45;3.08;;;5.50;99.90;;;;;;6095780;23;20026;-78
2022/02/10 19:54:30;;;;;;;24.17;3.25;;;5.60;99.90;;;;;;6096021;23;20014;-78
2022/02/10 19:56:58;;;;;;;21.25;3.42;;;5.60;99.90;;;;;;6073955;23;20472;-79
2022/02/10 19:59:30;;;;;;;22.27;3.08;;;6.50;99.90;;;;;;6096740;23;20441;-79
2022/02/10 20:02:07;;;;;;;13.10;3.35;;;5.50;99.90;;;;;;6072683;23;20118;-79
2022/02/10 20:04:33;;;;;;;14.73;3.50;;;5.50;99.90;;;;;;6095666;23;20101;-78
2022/02/10 20:06:59;;;;;;;20.15;3.45;;;5.50;99.90;;;;;;6071618;23;20113;-79
2022/02/10 20:09:28;;;;;;;19.52;3.38;;;5.50;99.90;;;;;;6071795;23;20098;-78
2022/02/10 20:12:14;;;;;;;15.88;3.17;;;5.50;99.90;;;;;;6071573;23;20417;-79
2022/02/10 20:14:52;;;;;;;20.08;3.00;;;5.50;99.90;;;;;;6096228;23;20345;-79
2022/02/10 20:17:25;;;;;;;23.73;3.58;;;6.30;99.90;;;;;;6050645;23;20460;-79
2022/02/10 20:19:51;;;;;;;17.45;3.30;;;6.70;99.90;;;;;;6072514;23;20078;-78
2022/02/10 20:22:28;;;;;;;21.83;3.45;;;5.20;99.90;;;;;;6097774;23;20049;-79
2022/02/10 20:25:03;;;;;;;19.33;3.10;;;;;;;;;;6096457;23;20097;-80
2022/02/10 20:27:33;;;;;;;15.13;3.03;;;5.50;99.90;;;;;;6072114;23;20019;-79
2022/02/10 20:30:03;;;;;;;17.40;3.13;;;5.40;99.90;;;;;;6096418;23;20085;-79
2022/02/10 20:32:29;;;;;;;21.58;3.75;;;5.50;99.90;;;;;;6049563;23;20015;-79
2022/02/10 20:34:57;;;;;;;23.67;4.38;;;5.10;99.90;;;;;;6096311;23;20010;-79
2022/02/10 20:37:27;;;;;;;26.27;3.47;;;5.40;99.90;;;;;;6097200;23;20014;-80
2022/02/10 20:39:53;;;;;;;16.05;2.70;;;5.30;99.90;;;;;;6095404;23;20086;-80
2022/02/10 20:42:20;;;;;;;18.25;3.17;;;5.40;99.90;;;;;;6096849;23;20047;-80
2022/02/10 20:44:55;;;;;;;16.05;3.70;;;5.40;99.90;;;;;;6047935;23;20018;-79
2022/02/10 20:47:25;;;;;;;13.57;3.25;;;5.40;99.90;;;;;;6097279;23;20014;-80
2022/02/10 20:49:51;;;;;;;17.33;3.97;;;5.40;99.90;;;;;;6097217;23;20014;-79
2022/02/10 20:52:18;;;;;;;21.52;3.50;;;5.40;99.90;;;;;;6071363;23;20453;-79
2022/02/10 20:54:46;;;;;;;19.83;3.88;;;5.30;99.90;;;;;;6095133;23;20034;-79
2022/02/10 20:57:12;;;;;;;18.23;2.67;;;5.30;99.90;;;;;;6071487;23;20074;-79
2022/02/10 20:59:41;;;;;;;15.77;3.03;;;5.30;99.90;;;;;;6096698;23;20346;-79
2022/02/10 21:02:14;;;;;;;18.13;3.00;;;5.30;99.90;;;;;;6085090;23;20022;-77
2022/02/10 21:04:54;;;;;;;16.55;2.88;;;5.50;99.90;;;;;;6072612;23;20072;-80
2022/02/10 21:07:37;;;;;;;17.52;3.80;;;5.30;99.90;;;;;;6095597;23;20341;-80
2022/02/10 21:10:12;;;;;;;22.20;3.95;;;5.40;99.90;;;;;;6071649;23;20070;-79
2022/02/10 21:12:40;;;;;;;20.17;3.37;;;4.60;99.90;;;;;;6095434;23;20085;-79
2022/02/10 21:15:11;;;;;;;22.60;4.03;;;5.30;99.90;;;;;;6070994;23;20254;-79
2022/02/10 21:17:37;;;;;;;21.40;3.70;;;5.20;99.90;;;;;;6097003;23;20089;-79
2022/02/10 21:20:04;;;;;;;16.70;3.58;;;5.20;99.90;;;;;;6095069;23;20102;-79
2022/02/10 21:22:38;;;;;;;17.58;4.38;;;5.20;99.90;;;;;;6071802;23;20022;-80
2022/02/10 21:25:19;;;;;;;20.15;3.50;;;5.30;99.90;;;;;;6095575;23;20018;-78
2022/02/10 21:27:47;;;;;;;19.73;3.28;;;6.40;99.90;;;;;;6071430;23;20022;-80
2022/02/10 21:30:15;;;;;;;16.05;3.08;;;5.20;99.90;;;;;;6048101;23;20357;-80
2022/02/10 21:32:56;;;;;;;15.18;3.58;;;5.90;99.90;;;;;;6071307;23;20078;-79
2022/02/10 21:35:57;;;;;;;23.67;4.30;;;5.00;99.90;;;;;;6097019;23;20499;-80
2022/02/10 21:38:28;;;;;;;18.73;3.63;;;5.10;99.90;;;;;;6096440;23;20050;-77
2022/02/10 22:21:38;;;;;;;13.93;3.40;;;4.70;99.90;;;;;;6095077;23;20037;-79
2022/02/10 22:24:09;;;;;;;14.50;3.13;;;4.70;99.90;;;;;;6094910;23;20025;-80
2022/02/10 22:26:37;;;;;;;17.45;3.05;;;4.30;99.90;;;;;;6094699;23;20051;-80
2022/02/10 22:34:28;;;;;;;15.30;3.53;;;4.60;99.90;;;;;;6096827;23;20453;-78
2022/02/10 22:36:59;;;;;;;19.55;2.80;;;4.60;99.90;;;;;;6096737;23;20011;-79
2022/02/10 22:39:33;;;;;;;16.20;4.25;;;4.60;99.90;;;;;;6097978;23;20011;-79
2022/02/10 22:42:02;;;;;;;19.58;4.32;;;5.30;99.90;;;;;;6072321;23;20022;-79
2022/02/10 22:44:31;;;;;;;16.40;4.05;;;5.40;99.90;;;;;;6096592;23;20022;-79
2022/02/10 22:46:56;;;;;;;16.65;3.40;;;4.50;99.90;;;;;;6097827;23;20449;-78
2022/02/10 22:49:22;;;;;;;16.13;4.35;;;4.50;99.90;;;;;;6096142;23;20022;-78
2022/02/10 22:51:51;;;;;;;22.77;3.60;;;4.50;99.90;;;;;;6098131;23;20025;-79
2022/02/10 22:54:18;;;;;;;16.85;3.72;;;4.60;99.90;;;;;;6072362;23;20014;-77
2022/02/10 22:56:45;;;;;;;19.85;5.20;;;4.50;99.90;;;;;;6097890;23;20022;-77
2022/02/10 22:59:16;;;;;;;15.75;4.45;;;4.40;99.90;;;;;;6072446;23;20415;-78
2022/02/10 23:01:45;;;;;;;15.60;2.75;;;4.50;99.90;;;;;;6072769;23;20078;-78
2022/02/10 23:04:12;;;;;;;14.30;3.67;;;4.50;99.90;;;;;;6071960;23;20025;-78
2022/02/10 23:06:42;;;;;;;13.88;3.00;;;4.50;99.90;;;;;;6071681;23;20432;-78
2022/02/10 23:09:38;;;;;;;15.23;3.20;;;4.50;99.90;;;;;;6096302;23;20028;-79
2022/02/10 23:12:04;;;;;;;16.03;3.70;;;5.30;99.90;;;;;;6096387;23;20437;-79
2022/02/10 23:14:38;;;;;;;15.20;3.50;;;4.60;99.90;;;;;;6097716;23;20302;-79
2022/02/10 23:17:04;;;;;;;19.25;3.00;;;4.60;99.90;;;;;;6097717;23;20067;-79
2022/02/10 23:19:34;;;;;;;11.75;3.20;;;4.60;99.90;;;;;;6072200;23;20018;-78
2022/02/10 23:22:20;;;;;;;12.65;2.83;;;4.60;99.90;;;;;;6096072;23;20171;-78
2022/02/10 23:24:45;;;;;;;13.85;2.30;;;4.50;99.90;;;;;;6097586;23;20014;-78
2022/02/10 23:27:14;;;;;;;12.48;2.67;;;4.60;99.90;;;;;;6072156;23;20026;-78
2022/02/10 23:29:39;;;;;;;15.10;2.83;;;4.90;99.90;;;;;;6095994;23;20022;-78
2022/02/10 23:32:05;;;;;;;12.52;2.58;;;4.60;99.90;;;;;;6095962;23;20022;-78
2022/02/10 23:34:32;;;;;;;16.83;2.78;;;4.60;99.90;;;;;;6096107;23;20014;-79
2022/02/10 23:36:58;;;;;;;16.92;4.00;;;4.60;99.90;;;;;;6096352;23;20023;-79
2022/02/10 23:39:38;;;;;;;15.10;4.22;;;4.60;99.90;;;;;;6096425;23;20049;-78
2022/02/10 23:42:15;;;;;;;12.18;3.85;;;4.60;99.90;;;;;;6097693;23;20021;-79
2022/02/10 23:44:48;;;;;;;16.27;3.25;;;4.60;99.90;;;;;;6095654;23;20018;-79
2022/02/10 23:47:19;;;;;;;15.10;3.15;;;4.60;99.90;;;;;;6095006;23;20024;-79
2022/02/10 23:49:46;;;;;;;17.98;3.80;;;5.60;99.90;;;;;;6049240;23;20093;-79
2022/02/10 23:52:15;;;;;;;13.23;3.13;;;4.60;99.90;;;;;;6097491;23;20057;-79
2022/02/10 23:54:43;;;;;;;14.85;3.33;;;4.50;99.90;;;;;;6096123;23;20386;-79
2022/02/10 23:57:17;;;;;;;15.07;3.33;;;4.50;99.90;;;;;;6097234;23;20029;-79
